sensor_id;sensor_type;location;lat;lon;timestamp;P1;durP1;ratioP1;P2;durP2;ratioP2
47519;SDS011;33252;48.122;11.538;2023-05-14T00:00:48;16.98;;;13.65;;
47519;SDS011;33252;48.122;11.538;2023-05-14T00:03:14;19.15;;;13.25;;
47519;SDS011;33252;48.122;11.538;2023-05-14T00:05:40;18.05;;;13.65;;
47519;SDS011;33252;48.122;11.538;2023-05-14T00:08:05;22.98;;;14.65;;
47519;SDS011;33252;48.122;11.538;2023-05-14T00:10:31;23.45;;;13.80;;
47519;SDS011;33252;48.122;11.538;2023-05-14T00:12:57;21.85;;;15.20;;
47519;SDS011;33252;48.122;11.538;2023-05-14T00:15:23;21.58;;;13.50;;
47519;SDS011;33252;48.122;11.538;2023-05-14T00:17:48;16.05;;;12.95;;
47519;SDS011;33252;48.122;11.538;2023-05-14T00:20:14;22.70;;;15.60;;
47519;SDS011;33252;48.122;11.538;2023-05-14T00:22:40;20.23;;;13.85;;
47519;SDS011;33252;48.122;11.538;2023-05-14T00:25:06;19.00;;;14.45;;
47519;SDS011;33252;48.122;11.538;2023-05-14T00:27:32;20.35;;;14.65;;
47519;SDS011;33252;48.122;11.538;2023-05-14T00:29:58;21.30;;;14.65;;
47519;SDS011;33252;48.122;11.538;2023-05-14T00:32:24;21.17;;;14.73;;
47519;SDS011;33252;48.122;11.538;2023-05-14T00:34:50;20.50;;;15.02;;
47519;SDS011;33252;48.122;11.538;2023-05-14T00:37:15;20.13;;;13.25;;
47519;SDS011;33252;48.122;11.538;2023-05-14T00:39:41;21.20;;;15.07;;
47519;SDS011;33252;48.122;11.538;2023-05-14T00:42:06;19.55;;;14.20;;
47519;SDS011;33252;48.122;11.538;2023-05-14T00:44:32;19.88;;;14.32;;
47519;SDS011;33252;48.122;11.538;2023-05-14T00:46:58;24.13;;;15.63;;
47519;SDS011;33252;48.122;11.538;2023-05-14T00:49:24;21.08;;;14.02;;
47519;SDS011;33252;48.122;11.538;2023-05-14T00:51:51;19.67;;;14.40;;
47519;SDS011;33252;48.122;11.538;2023-05-14T00:54:17;20.90;;;14.23;;
47519;SDS011;33252;48.122;11.538;2023-05-14T00:56:45;20.85;;;14.68;;
47519;SDS011;33252;48.122;11.538;2023-05-14T00:59:11;22.10;;;14.15;;
47519;SDS011;33252;48.122;11.538;2023-05-14T01:01:38;22.73;;;14.57;;
47519;SDS011;33252;48.122;11.538;2023-05-14T01:04:04;19.13;;;12.98;;
47519;SDS011;33252;48.122;11.538;2023-05-14T01:15:32;20.23;;;13.30;;
47519;SDS011;33252;48.122;11.538;2023-05-14T01:18:04;20.48;;;14.60;;
47519;SDS011;33252;48.122;11.538;2023-05-14T01:20:34;22.58;;;16.13;;
47519;SDS011;33252;48.122;11.538;2023-05-14T01:23:00;22.08;;;15.07;;
47519;SDS011;33252;48.122;11.538;2023-05-14T01:25:26;23.23;;;15.43;;
47519;SDS011;33252;48.122;11.538;2023-05-14T01:30:31;23.60;;;14.88;;
47519;SDS011;33252;48.122;11.538;2023-05-14T01:33:08;23.85;;;14.75;;
47519;SDS011;33252;48.122;11.538;2023-05-14T01:35:35;21.13;;;14.57;;
47519;SDS011;33252;48.122;11.538;2023-05-14T01:38:03;21.25;;;15.07;;
47519;SDS011;33252;48.122;11.538;2023-05-14T01:40:31;23.35;;;16.05;;
47519;SDS011;33252;48.122;11.538;2023-05-14T01:42:58;28.92;;;16.58;;
47519;SDS011;33252;48.122;11.538;2023-05-14T01:45:24;22.75;;;14.50;;
47519;SDS011;33252;48.122;11.538;2023-05-14T01:47:51;20.65;;;14.45;;
47519;SDS011;33252;48.122;11.538;2023-05-14T01:50:17;21.08;;;15.38;;
47519;SDS011;33252;48.122;11.538;2023-05-14T01:52:43;21.75;;;14.85;;
47519;SDS011;33252;48.122;11.538;2023-05-14T01:55:08;22.55;;;14.05;;
47519;SDS011;33252;48.122;11.538;2023-05-14T01:57:34;20.30;;;14.15;;
47519;SDS011;33252;48.122;11.538;2023-05-14T02:00:00;23.88;;;13.50;;
47519;SDS011;33252;48.122;11.538;2023-05-14T02:02:26;19.80;;;12.60;;
47519;SDS011;33252;48.122;11.538;2023-05-14T02:04:51;18.50;;;12.60;;
47519;SDS011;33252;48.122;11.538;2023-05-14T02:07:17;20.98;;;13.35;;
47519;SDS011;33252;48.122;11.538;2023-05-14T02:09:43;21.00;;;13.82;;
47519;SDS011;33252;48.122;11.538;2023-05-14T02:12:08;22.13;;;13.80;;
47519;SDS011;33252;48.122;11.538;2023-05-14T02:14:35;21.33;;;13.50;;
47519;SDS011;33252;48.122;11.538;2023-05-14T02:17:01;23.52;;;12.75;;
47519;SDS011;33252;48.122;11.538;2023-05-14T02:19:27;23.58;;;14.23;;
47519;SDS011;33252;48.122;11.538;2023-05-14T02:21:53;24.02;;;15.30;;
47519;SDS011;33252;48.122;11.538;2023-05-14T02:24:19;22.65;;;14.35;;
47519;SDS011;33252;48.122;11.538;2023-05-14T02:26:45;24.00;;;15.57;;
47519;SDS011;33252;48.122;11.538;2023-05-14T02:29:11;26.30;;;14.40;;
47519;SDS011;33252;48.122;11.538;2023-05-14T02:31:37;23.02;;;15.18;;
47519;SDS011;33252;48.122;11.538;2023-05-14T02:34:03;27.25;;;16.35;;
47519;SDS011;33252;48.122;11.538;2023-05-14T02:36:30;28.08;;;16.50;;
47519;SDS011;33252;48.122;11.538;2023-05-14T02:38:57;30.33;;;17.80;;
47519;SDS011;33252;48.122;11.538;2023-05-14T02:41:23;25.77;;;16.10;;
47519;SDS011;33252;48.122;11.538;2023-05-14T02:43:49;27.33;;;18.38;;
47519;SDS011;33252;48.122;11.538;2023-05-14T02:46:14;28.45;;;16.52;;
47519;SDS011;33252;48.122;11.538;2023-05-14T02:48:40;27.80;;;15.93;;
47519;SDS011;33252;48.122;11.538;2023-05-14T02:51:06;23.65;;;14.82;;
47519;SDS011;33252;48.122;11.538;2023-05-14T02:53:32;28.20;;;17.17;;
47519;SDS011;33252;48.122;11.538;2023-05-14T02:55:57;26.00;;;16.40;;
47519;SDS011;33252;48.122;11.538;2023-05-14T02:58:23;27.08;;;16.92;;
47519;SDS011;33252;48.122;11.538;2023-05-14T03:00:49;23.90;;;16.13;;
47519;SDS011;33252;48.122;11.538;2023-05-14T03:03:15;27.85;;;17.55;;
47519;SDS011;33252;48.122;11.538;2023-05-14T03:05:42;27.02;;;16.67;;
47519;SDS011;33252;48.122;11.538;2023-05-14T03:08:08;27.10;;;16.35;;
47519;SDS011;33252;48.122;11.538;2023-05-14T03:10:34;26.35;;;16.25;;
47519;SDS011;33252;48.122;11.538;2023-05-14T03:12:59;28.88;;;16.95;;
47519;SDS011;33252;48.122;11.538;2023-05-14T03:15:25;24.80;;;16.13;;
47519;SDS011;33252;48.122;11.538;2023-05-14T03:17:50;25.83;;;16.17;;
47519;SDS011;33252;48.122;11.538;2023-05-14T03:20:16;20.20;;;14.18;;
47519;SDS011;33252;48.122;11.538;2023-05-14T03:22:42;27.88;;;16.13;;
47519;SDS011;33252;48.122;11.538;2023-05-14T03:25:08;27.05;;;15.70;;
47519;SDS011;33252;48.122;11.538;2023-05-14T03:27:33;24.05;;;14.60;;
47519;SDS011;33252;48.122;11.538;2023-05-14T03:29:59;24.73;;;15.65;;
47519;SDS011;33252;48.122;11.538;2023-05-14T03:32:25;24.83;;;15.48;;
47519;SDS011;33252;48.122;11.538;2023-05-14T03:34:51;21.88;;;14.52;;
47519;SDS011;33252;48.122;11.538;2023-05-14T03:37:16;27.42;;;16.08;;
47519;SDS011;33252;48.122;11.538;2023-05-14T03:39:42;22.88;;;14.68;;
47519;SDS011;33252;48.122;11.538;2023-05-14T03:42:08;28.45;;;14.98;;
47519;SDS011;33252;48.122;11.538;2023-05-14T03:44:33;22.98;;;14.63;;
47519;SDS011;33252;48.122;11.538;2023-05-14T03:46:59;23.88;;;15.02;;
47519;SDS011;33252;48.122;11.538;2023-05-14T03:49:25;22.17;;;14.80;;
47519;SDS011;33252;48.122;11.538;2023-05-14T03:51:50;22.27;;;15.02;;
47519;SDS011;33252;48.122;11.538;2023-05-14T03:54:16;26.92;;;16.27;;
47519;SDS011;33252;48.122;11.538;2023-05-14T03:56:42;25.33;;;15.50;;
47519;SDS011;33252;48.122;11.538;2023-05-14T03:59:07;25.15;;;15.52;;
47519;SDS011;33252;48.122;11.538;2023-05-14T04:01:33;25.45;;;15.23;;
47519;SDS011;33252;48.122;11.538;2023-05-14T04:03:59;22.40;;;14.95;;
47519;SDS011;33252;48.122;11.538;2023-05-14T04:06:24;25.30;;;15.63;;
47519;SDS011;33252;48.122;11.538;2023-05-14T04:08:50;21.92;;;14.90;;
47519;SDS011;33252;48.122;11.538;2023-05-14T04:11:16;24.85;;;14.90;;
47519;SDS011;33252;48.122;11.538;2023-05-14T04:13:41;28.27;;;16.95;;
47519;SDS011;33252;48.122;11.538;2023-05-14T04:16:07;27.63;;;16.20;;
47519;SDS011;33252;48.122;11.538;2023-05-14T04:18:33;27.65;;;16.15;;
47519;SDS011;33252;48.122;11.538;2023-05-14T04:21:00;26.92;;;15.85;;
47519;SDS011;33252;48.122;11.538;2023-05-14T04:23:26;24.98;;;15.18;;
47519;SDS011;33252;48.122;11.538;2023-05-14T04:25:52;26.75;;;16.48;;
47519;SDS011;33252;48.122;11.538;2023-05-14T04:28:17;25.70;;;15.75;;
47519;SDS011;33252;48.122;11.538;2023-05-14T04:30:43;25.70;;;15.02;;
47519;SDS011;33252;48.122;11.538;2023-05-14T04:33:09;31.48;;;14.98;;
47519;SDS011;33252;48.122;11.538;2023-05-14T04:35:35;24.08;;;15.75;;
47519;SDS011;33252;48.122;11.538;2023-05-14T04:38:01;30.45;;;16.33;;
47519;SDS011;33252;48.122;11.538;2023-05-14T04:40:27;25.20;;;15.05;;
47519;SDS011;33252;48.122;11.538;2023-05-14T04:42:52;25.17;;;14.80;;
47519;SDS011;33252;48.122;11.538;2023-05-14T04:45:18;24.67;;;14.82;;
47519;SDS011;33252;48.122;11.538;2023-05-14T04:47:44;25.23;;;15.60;;
47519;SDS011;33252;48.122;11.538;2023-05-14T04:50:10;31.17;;;15.68;;
47519;SDS011;33252;48.122;11.538;2023-05-14T04:52:36;25.65;;;15.40;;
47519;SDS011;33252;48.122;11.538;2023-05-14T04:55:03;24.75;;;15.07;;
47519;SDS011;33252;48.122;11.538;2023-05-14T04:57:29;24.67;;;14.02;;
47519;SDS011;33252;48.122;11.538;2023-05-14T04:59:54;26.63;;;16.13;;
47519;SDS011;33252;48.122;11.538;2023-05-14T05:02:20;23.83;;;15.07;;
47519;SDS011;33252;48.122;11.538;2023-05-14T05:04:46;25.75;;;15.57;;
47519;SDS011;33252;48.122;11.538;2023-05-14T05:07:11;28.10;;;16.70;;
47519;SDS011;33252;48.122;11.538;2023-05-14T05:09:38;27.35;;;15.65;;
47519;SDS011;33252;48.122;11.538;2023-05-14T05:12:04;27.63;;;16.85;;
47519;SDS011;33252;48.122;11.538;2023-05-14T05:14:30;24.55;;;16.25;;
47519;SDS011;33252;48.122;11.538;2023-05-14T05:16:56;26.45;;;16.50;;
47519;SDS011;33252;48.122;11.538;2023-05-14T05:19:21;30.83;;;17.17;;
47519;SDS011;33252;48.122;11.538;2023-05-14T05:21:47;29.98;;;17.33;;
47519;SDS011;33252;48.122;11.538;2023-05-14T05:24:13;29.42;;;17.65;;
47519;SDS011;33252;48.122;11.538;2023-05-14T05:26:41;30.65;;;17.45;;
47519;SDS011;33252;48.122;11.538;2023-05-14T05:29:07;24.85;;;16.45;;
47519;SDS011;33252;48.122;11.538;2023-05-14T05:31:33;26.60;;;16.60;;
47519;SDS011;33252;48.122;11.538;2023-05-14T05:33:59;28.33;;;18.20;;
47519;SDS011;33252;48.122;11.538;2023-05-14T05:36:25;31.88;;;17.80;;
47519;SDS011;33252;48.122;11.538;2023-05-14T05:38:51;31.08;;;16.58;;
47519;SDS011;33252;48.122;11.538;2023-05-14T05:41:17;30.58;;;18.88;;
47519;SDS011;33252;48.122;11.538;2023-05-14T05:43:42;33.60;;;17.20;;
47519;SDS011;33252;48.122;11.538;2023-05-14T05:46:08;31.38;;;17.85;;
47519;SDS011;33252;48.122;11.538;2023-05-14T05:48:33;26.17;;;16.88;;
47519;SDS011;33252;48.122;11.538;2023-05-14T05:50:59;37.17;;;21.60;;
47519;SDS011;33252;48.122;11.538;2023-05-14T05:53:25;31.27;;;18.35;;
47519;SDS011;33252;48.122;11.538;2023-05-14T05:55:51;30.27;;;18.48;;
47519;SDS011;33252;48.122;11.538;2023-05-14T05:58:17;30.17;;;18.77;;
47519;SDS011;33252;48.122;11.538;2023-05-14T06:00:43;34.75;;;18.63;;
47519;SDS011;33252;48.122;11.538;2023-05-14T06:03:09;26.90;;;16.88;;
47519;SDS011;33252;48.122;11.538;2023-05-14T06:05:35;30.73;;;17.70;;
47519;SDS011;33252;48.122;11.538;2023-05-14T06:08:01;30.95;;;17.55;;
47519;SDS011;33252;48.122;11.538;2023-05-14T06:10:27;30.25;;;18.27;;
47519;SDS011;33252;48.122;11.538;2023-05-14T06:12:52;30.73;;;18.42;;
47519;SDS011;33252;48.122;11.538;2023-05-14T06:15:18;28.67;;;17.67;;
47519;SDS011;33252;48.122;11.538;2023-05-14T06:17:44;27.20;;;16.73;;
47519;SDS011;33252;48.122;11.538;2023-05-14T06:20:10;29.90;;;15.85;;
47519;SDS011;33252;48.122;11.538;2023-05-14T06:22:36;28.67;;;16.92;;
47519;SDS011;33252;48.122;11.538;2023-05-14T06:25:02;33.85;;;18.55;;
47519;SDS011;33252;48.122;11.538;2023-05-14T06:27:28;29.98;;;18.58;;
47519;SDS011;33252;48.122;11.538;2023-05-14T06:29:54;33.08;;;17.48;;
47519;SDS011;33252;48.122;11.538;2023-05-14T06:32:19;27.95;;;16.95;;
47519;SDS011;33252;48.122;11.538;2023-05-14T06:34:45;27.67;;;16.80;;
47519;SDS011;33252;48.122;11.538;2023-05-14T06:37:11;35.88;;;18.80;;
47519;SDS011;33252;48.122;11.538;2023-05-14T06:39:36;31.50;;;18.20;;
47519;SDS011;33252;48.122;11.538;2023-05-14T06:42:02;34.53;;;18.67;;
47519;SDS011;33252;48.122;11.538;2023-05-14T06:44:28;35.05;;;17.88;;
47519;SDS011;33252;48.122;11.538;2023-05-14T06:46:54;28.52;;;18.70;;
47519;SDS011;33252;48.122;11.538;2023-05-14T06:49:21;27.58;;;16.90;;
47519;SDS011;33252;48.122;11.538;2023-05-14T06:51:46;26.13;;;15.68;;
47519;SDS011;33252;48.122;11.538;2023-05-14T06:54:12;30.00;;;16.80;;
47519;SDS011;33252;48.122;11.538;2023-05-14T06:56:38;28.08;;;18.27;;
47519;SDS011;33252;48.122;11.538;2023-05-14T06:59:04;28.48;;;16.80;;
47519;SDS011;33252;48.122;11.538;2023-05-14T07:01:29;26.95;;;16.33;;
47519;SDS011;33252;48.122;11.538;2023-05-14T07:03:55;24.13;;;15.35;;
47519;SDS011;33252;48.122;11.538;2023-05-14T07:06:21;23.60;;;15.00;;
47519;SDS011;33252;48.122;11.538;2023-05-14T07:08:47;26.50;;;15.82;;
47519;SDS011;33252;48.122;11.538;2023-05-14T07:11:13;25.25;;;15.43;;
47519;SDS011;33252;48.122;11.538;2023-05-14T07:13:39;30.92;;;17.23;;
47519;SDS011;33252;48.122;11.538;2023-05-14T07:16:05;24.27;;;15.70;;
47519;SDS011;33252;48.122;11.538;2023-05-14T07:18:34;21.33;;;14.82;;
47519;SDS011;33252;48.122;11.538;2023-05-14T07:20:59;23.45;;;15.00;;
47519;SDS011;33252;48.122;11.538;2023-05-14T07:23:25;27.85;;;16.13;;
47519;SDS011;33252;48.122;11.538;2023-05-14T07:25:51;26.42;;;15.75;;
47519;SDS011;33252;48.122;11.538;2023-05-14T07:28:16;25.48;;;16.67;;
47519;SDS011;33252;48.122;11.538;2023-05-14T07:30:42;27.15;;;16.40;;
47519;SDS011;33252;48.122;11.538;2023-05-14T07:33:08;25.73;;;16.02;;
47519;SDS011;33252;48.122;11.538;2023-05-14T07:35:33;22.08;;;14.10;;
47519;SDS011;33252;48.122;11.538;2023-05-14T07:37:59;23.23;;;13.82;;
47519;SDS011;33252;48.122;11.538;2023-05-14T07:40:25;21.08;;;13.60;;
47519;SDS011;33252;48.122;11.538;2023-05-14T07:42:51;24.27;;;15.80;;
47519;SDS011;33252;48.122;11.538;2023-05-14T07:45:16;21.23;;;14.45;;
47519;SDS011;33252;48.122;11.538;2023-05-14T07:47:42;24.98;;;14.50;;
47519;SDS011;33252;48.122;11.538;2023-05-14T07:50:08;19.63;;;13.27;;
47519;SDS011;33252;48.122;11.538;2023-05-14T07:52:34;20.45;;;13.38;;
47519;SDS011;33252;48.122;11.538;2023-05-14T07:55:01;20.15;;;13.23;;
47519;SDS011;33252;48.122;11.538;2023-05-14T07:57:27;23.67;;;13.73;;
47519;SDS011;33252;48.122;11.538;2023-05-14T07:59:53;22.90;;;13.98;;
47519;SDS011;33252;48.122;11.538;2023-05-14T08:02:20;23.67;;;14.35;;
47519;SDS011;33252;48.122;11.538;2023-05-14T08:04:46;20.10;;;13.43;;
47519;SDS011;33252;48.122;11.538;2023-05-14T08:07:12;21.60;;;13.85;;
47519;SDS011;33252;48.122;11.538;2023-05-14T08:09:37;19.58;;;13.43;;
47519;SDS011;33252;48.122;11.538;2023-05-14T08:12:03;22.83;;;14.90;;
47519;SDS011;33252;48.122;11.538;2023-05-14T08:14:29;24.10;;;15.10;;
47519;SDS011;33252;48.122;11.538;2023-05-14T08:16:55;24.63;;;16.25;;
47519;SDS011;33252;48.122;11.538;2023-05-14T08:19:21;23.75;;;14.77;;
47519;SDS011;33252;48.122;11.538;2023-05-14T08:21:47;18.40;;;12.00;;
47519;SDS011;33252;48.122;11.538;2023-05-14T08:24:12;19.02;;;12.70;;
47519;SDS011;33252;48.122;11.538;2023-05-14T08:26:39;20.10;;;12.60;;
47519;SDS011;33252;48.122;11.538;2023-05-14T08:29:04;17.67;;;12.05;;
47519;SDS011;33252;48.122;11.538;2023-05-14T08:31:30;16.45;;;11.95;;
47519;SDS011;33252;48.122;11.538;2023-05-14T08:33:56;17.88;;;11.70;;
47519;SDS011;33252;48.122;11.538;2023-05-14T08:36:21;16.80;;;10.82;;
47519;SDS011;33252;48.122;11.538;2023-05-14T08:38:47;17.85;;;11.90;;
47519;SDS011;33252;48.122;11.538;2023-05-14T08:41:14;22.05;;;14.93;;
47519;SDS011;33252;48.122;11.538;2023-05-14T08:43:43;19.10;;;12.23;;
47519;SDS011;33252;48.122;11.538;2023-05-14T08:46:13;22.13;;;13.25;;
47519;SDS011;33252;48.122;11.538;2023-05-14T08:48:41;19.73;;;13.45;;
47519;SDS011;33252;48.122;11.538;2023-05-14T08:51:07;23.30;;;14.02;;
47519;SDS011;33252;48.122;11.538;2023-05-14T08:53:33;21.52;;;13.98;;
47519;SDS011;33252;48.122;11.538;2023-05-14T08:56:00;22.92;;;13.65;;
47519;SDS011;33252;48.122;11.538;2023-05-14T08:58:26;19.00;;;12.93;;
47519;SDS011;33252;48.122;11.538;2023-05-14T09:00:53;19.33;;;12.20;;
47519;SDS011;33252;48.122;11.538;2023-05-14T09:03:19;20.60;;;12.65;;
47519;SDS011;33252;48.122;11.538;2023-05-14T09:05:46;22.88;;;12.48;;
47519;SDS011;33252;48.122;11.538;2023-05-14T09:08:13;19.70;;;11.48;;
47519;SDS011;33252;48.122;11.538;2023-05-14T09:10:38;19.50;;;11.70;;
47519;SDS011;33252;48.122;11.538;2023-05-14T09:13:04;19.13;;;11.68;;
47519;SDS011;33252;48.122;11.538;2023-05-14T09:15:30;17.65;;;11.63;;
47519;SDS011;33252;48.122;11.538;2023-05-14T09:17:58;20.85;;;13.02;;
47519;SDS011;33252;48.122;11.538;2023-05-14T09:20:23;20.13;;;13.05;;
47519;SDS011;33252;48.122;11.538;2023-05-14T09:22:52;20.73;;;12.57;;
47519;SDS011;33252;48.122;11.538;2023-05-14T09:25:18;17.55;;;11.15;;
47519;SDS011;33252;48.122;11.538;2023-05-14T09:27:45;20.63;;;12.18;;
47519;SDS011;33252;48.122;11.538;2023-05-14T09:30:14;19.58;;;12.57;;
47519;SDS011;33252;48.122;11.538;2023-05-14T09:32:41;20.20;;;12.50;;
47519;SDS011;33252;48.122;11.538;2023-05-14T09:37:50;20.60;;;12.98;;
47519;SDS011;33252;48.122;11.538;2023-05-14T09:40:18;19.17;;;12.10;;
47519;SDS011;33252;48.122;11.538;2023-05-14T09:42:45;18.27;;;12.45;;
47519;SDS011;33252;48.122;11.538;2023-05-14T09:45:13;19.98;;;11.68;;
47519;SDS011;33252;48.122;11.538;2023-05-14T09:47:39;20.38;;;13.30;;
47519;SDS011;33252;48.122;11.538;2023-05-14T09:50:05;18.55;;;11.00;;
47519;SDS011;33252;48.122;11.538;2023-05-14T09:52:31;14.02;;;10.02;;
47519;SDS011;33252;48.122;11.538;2023-05-14T09:54:57;16.60;;;10.57;;
47519;SDS011;33252;48.122;11.538;2023-05-14T09:57:24;18.50;;;11.15;;
47519;SDS011;33252;48.122;11.538;2023-05-14T09:59:51;17.77;;;11.13;;
47519;SDS011;33252;48.122;11.538;2023-05-14T10:02:24;15.52;;;10.10;;
47519;SDS011;33252;48.122;11.538;2023-05-14T10:04:56;18.45;;;11.63;;
47519;SDS011;33252;48.122;11.538;2023-05-14T10:07:26;16.17;;;10.48;;
47519;SDS011;33252;48.122;11.538;2023-05-14T10:09:58;16.27;;;10.45;;
47519;SDS011;33252;48.122;11.538;2023-05-14T10:12:31;15.38;;;9.73;;
47519;SDS011;33252;48.122;11.538;2023-05-14T10:15:00;15.30;;;9.75;;
47519;SDS011;33252;48.122;11.538;2023-05-14T10:17:30;13.52;;;9.70;;
47519;SDS011;33252;48.122;11.538;2023-05-14T10:19:58;13.02;;;9.40;;
47519;SDS011;33252;48.122;11.538;2023-05-14T10:22:29;12.00;;;8.95;;
47519;SDS011;33252;48.122;11.538;2023-05-14T10:24:57;12.60;;;9.15;;
47519;SDS011;33252;48.122;11.538;2023-05-14T10:27:23;12.10;;;8.63;;
47519;SDS011;33252;48.122;11.538;2023-05-14T10:29:50;13.77;;;9.75;;
47519;SDS011;33252;48.122;11.538;2023-05-14T10:32:20;12.65;;;8.93;;
47519;SDS011;33252;48.122;11.538;2023-05-14T10:34:49;13.27;;;9.13;;
47519;SDS011;33252;48.122;11.538;2023-05-14T10:39:53;12.07;;;9.40;;
47519;SDS011;33252;48.122;11.538;2023-05-14T10:42:24;12.80;;;8.13;;
47519;SDS011;33252;48.122;11.538;2023-05-14T10:44:58;9.45;;;7.18;;
47519;SDS011;33252;48.122;11.538;2023-05-14T10:47:26;14.38;;;8.32;;
47519;SDS011;33252;48.122;11.538;2023-05-14T10:49:54;11.50;;;8.77;;
47519;SDS011;33252;48.122;11.538;2023-05-14T10:52:22;11.98;;;8.10;;
47519;SDS011;33252;48.122;11.538;2023-05-14T10:54:49;13.75;;;9.23;;
47519;SDS011;33252;48.122;11.538;2023-05-14T10:57:19;14.52;;;10.25;;
47519;SDS011;33252;48.122;11.538;2023-05-14T10:59:46;14.68;;;9.00;;
47519;SDS011;33252;48.122;11.538;2023-05-14T11:02:17;12.77;;;8.55;;
47519;SDS011;33252;48.122;11.538;2023-05-14T11:07:36;9.80;;;8.23;;
47519;SDS011;33252;48.122;11.538;2023-05-14T11:10:04;11.93;;;8.43;;
47519;SDS011;33252;48.122;11.538;2023-05-14T11:12:34;13.27;;;9.00;;
47519;SDS011;33252;48.122;11.538;2023-05-14T11:15:02;10.95;;;8.00;;
47519;SDS011;33252;48.122;11.538;2023-05-14T11:17:30;12.25;;;9.05;;
47519;SDS011;33252;48.122;11.538;2023-05-14T11:19:57;11.32;;;7.80;;
47519;SDS011;33252;48.122;11.538;2023-05-14T11:22:23;12.57;;;7.97;;
47519;SDS011;33252;48.122;11.538;2023-05-14T11:24:49;10.50;;;7.75;;
47519;SDS011;33252;48.122;11.538;2023-05-14T11:27:15;9.75;;;7.70;;
47519;SDS011;33252;48.122;11.538;2023-05-14T11:29:45;11.55;;;8.18;;
47519;SDS011;33252;48.122;11.538;2023-05-14T11:32:12;10.90;;;7.68;;
47519;SDS011;33252;48.122;11.538;2023-05-14T11:34:39;10.70;;;7.45;;
47519;SDS011;33252;48.122;11.538;2023-05-14T11:37:06;11.10;;;7.95;;
47519;SDS011;33252;48.122;11.538;2023-05-14T11:39:32;8.70;;;7.15;;
47519;SDS011;33252;48.122;11.538;2023-05-14T11:42:03;11.82;;;7.25;;
47519;SDS011;33252;48.122;11.538;2023-05-14T11:44:33;10.43;;;7.28;;
47519;SDS011;33252;48.122;11.538;2023-05-14T11:46:59;8.30;;;5.95;;
47519;SDS011;33252;48.122;11.538;2023-05-14T11:49:26;8.60;;;6.68;;
47519;SDS011;33252;48.122;11.538;2023-05-14T11:51:59;8.52;;;6.80;;
47519;SDS011;33252;48.122;11.538;2023-05-14T11:54:26;9.70;;;6.63;;
47519;SDS011;33252;48.122;11.538;2023-05-14T11:56:53;10.65;;;6.63;;
47519;SDS011;33252;48.122;11.538;2023-05-14T11:59:23;7.35;;;6.20;;
47519;SDS011;33252;48.122;11.538;2023-05-14T12:01:51;10.68;;;6.90;;
47519;SDS011;33252;48.122;11.538;2023-05-14T12:04:17;7.47;;;5.70;;
47519;SDS011;33252;48.122;11.538;2023-05-14T12:06:46;8.40;;;6.28;;
47519;SDS011;33252;48.122;11.538;2023-05-14T12:09:16;8.18;;;6.15;;
47519;SDS011;33252;48.122;11.538;2023-05-14T12:11:43;12.40;;;6.47;;
47519;SDS011;33252;48.122;11.538;2023-05-14T12:14:13;8.25;;;6.05;;
47519;SDS011;33252;48.122;11.538;2023-05-14T12:16:44;6.65;;;5.95;;
47519;SDS011;33252;48.122;11.538;2023-05-14T12:19:11;7.07;;;5.70;;
47519;SDS011;33252;48.122;11.538;2023-05-14T12:21:39;7.80;;;6.20;;
47519;SDS011;33252;48.122;11.538;2023-05-14T12:24:11;7.32;;;5.88;;
47519;SDS011;33252;48.122;11.538;2023-05-14T12:26:38;7.07;;;5.60;;
47519;SDS011;33252;48.122;11.538;2023-05-14T12:29:04;6.57;;;5.38;;
47519;SDS011;33252;48.122;11.538;2023-05-14T12:31:34;7.13;;;6.00;;
47519;SDS011;33252;48.122;11.538;2023-05-14T12:34:02;9.38;;;6.22;;
47519;SDS011;33252;48.122;11.538;2023-05-14T12:36:28;8.05;;;6.07;;
47519;SDS011;33252;48.122;11.538;2023-05-14T12:38:59;8.45;;;5.97;;
47519;SDS011;33252;48.122;11.538;2023-05-14T12:41:26;7.65;;;6.35;;
47519;SDS011;33252;48.122;11.538;2023-05-14T12:43:52;6.38;;;5.22;;
47519;SDS011;33252;48.122;11.538;2023-05-14T12:46:18;6.57;;;5.40;;
47519;SDS011;33252;48.122;11.538;2023-05-14T12:48:44;8.38;;;6.40;;
47519;SDS011;33252;48.122;11.538;2023-05-14T12:51:10;8.55;;;5.70;;
47519;SDS011;33252;48.122;11.538;2023-05-14T12:53:36;6.63;;;5.07;;
47519;SDS011;33252;48.122;11.538;2023-05-14T12:56:01;7.95;;;6.65;;
47519;SDS011;33252;48.122;11.538;2023-05-14T12:58:27;8.57;;;6.15;;
47519;SDS011;33252;48.122;11.538;2023-05-14T13:00:53;7.97;;;5.80;;
47519;SDS011;33252;48.122;11.538;2023-05-14T13:03:18;5.40;;;4.90;;
47519;SDS011;33252;48.122;11.538;2023-05-14T13:05:45;6.15;;;5.35;;
47519;SDS011;33252;48.122;11.538;2023-05-14T13:08:12;8.02;;;5.18;;
47519;SDS011;33252;48.122;11.538;2023-05-14T13:10:44;5.43;;;4.88;;
47519;SDS011;33252;48.122;11.538;2023-05-14T13:13:10;7.63;;;5.57;;
47519;SDS011;33252;48.122;11.538;2023-05-14T13:15:36;7.32;;;5.28;;
47519;SDS011;33252;48.122;11.538;2023-05-14T13:18:02;7.65;;;4.90;;
47519;SDS011;33252;48.122;11.538;2023-05-14T13:20:28;6.25;;;5.28;;
47519;SDS011;33252;48.122;11.538;2023-05-14T13:22:55;6.38;;;5.22;;
47519;SDS011;33252;48.122;11.538;2023-05-14T13:25:21;6.63;;;5.07;;
47519;SDS011;33252;48.122;11.538;2023-05-14T13:27:47;5.90;;;5.07;;
47519;SDS011;33252;48.122;11.538;2023-05-14T13:30:17;5.15;;;4.65;;
47519;SDS011;33252;48.122;11.538;2023-05-14T13:32:43;6.82;;;5.35;;
47519;SDS011;33252;48.122;11.538;2023-05-14T13:35:09;5.72;;;4.60;;
47519;SDS011;33252;48.122;11.538;2023-05-14T13:37:35;5.40;;;4.88;;
47519;SDS011;33252;48.122;11.538;2023-05-14T13:40:02;3.78;;;3.20;;
47519;SDS011;33252;48.122;11.538;2023-05-14T13:42:34;3.53;;;3.22;;
47519;SDS011;33252;48.122;11.538;2023-05-14T13:45:00;3.00;;;2.67;;
47519;SDS011;33252;48.122;11.538;2023-05-14T13:47:26;3.65;;;3.25;;
47519;SDS011;33252;48.122;11.538;2023-05-14T13:49:52;4.20;;;3.33;;
47519;SDS011;33252;48.122;11.538;2023-05-14T13:52:18;2.85;;;2.08;;
47519;SDS011;33252;48.122;11.538;2023-05-14T13:54:45;2.60;;;2.25;;
47519;SDS011;33252;48.122;11.538;2023-05-14T13:57:11;2.05;;;1.70;;
47519;SDS011;33252;48.122;11.538;2023-05-14T13:59:36;3.38;;;3.08;;
47519;SDS011;33252;48.122;11.538;2023-05-14T14:02:02;3.95;;;3.45;;
47519;SDS011;33252;48.122;11.538;2023-05-14T14:04:29;4.20;;;3.83;;
47519;SDS011;33252;48.122;11.538;2023-05-14T14:06:54;4.82;;;4.43;;
47519;SDS011;33252;48.122;11.538;2023-05-14T14:09:20;3.35;;;3.05;;
47519;SDS011;33252;48.122;11.538;2023-05-14T14:11:46;4.10;;;3.28;;
47519;SDS011;33252;48.122;11.538;2023-05-14T14:14:12;2.92;;;2.63;;
47519;SDS011;33252;48.122;11.538;2023-05-14T14:16:38;3.63;;;3.05;;
47519;SDS011;33252;48.122;11.538;2023-05-14T14:19:03;3.40;;;2.85;;
47519;SDS011;33252;48.122;11.538;2023-05-14T14:21:29;2.53;;;2.33;;
47519;SDS011;33252;48.122;11.538;2023-05-14T14:23:56;2.90;;;2.70;;
47519;SDS011;33252;48.122;11.538;2023-05-14T14:26:21;2.92;;;2.63;;
47519;SDS011;33252;48.122;11.538;2023-05-14T14:28:47;3.75;;;2.92;;
47519;SDS011;33252;48.122;11.538;2023-05-14T14:31:13;3.10;;;2.80;;